Time;durP1;ratioP1;P1;durP2;ratioP2;P2;SDS_P1;SDS_P2;PMS_P1;PMS_P2;Temp;Humidity;BMP_temperature;BMP_pressure;BME280_temperature;BME280_humidity;BME280_pressure;Samples;Min_cycle;Max_cycle;Signal;HPM_P1;HPM_P2
2023/09/05 00:01:53;;;;;;;1.57;1.47;;;14.80;99.90;14.10;101445;;;;584830;241;24072;-76
2023/09/05 00:04:26;;;;;;;2.00;1.90;;;14.80;99.90;14.10;101442;;;;584558;241;24040;-77
2023/09/05 00:06:52;;;;;;;2.40;1.53;;;14.80;99.90;14.10;101439;;;;576622;246;24060;-80
2023/09/05 00:09:19;;;;;;;5.30;2.57;;;14.80;99.90;14.20;101441;;;;576487;246;24055;-77
2023/09/05 00:11:50;;;;;;;4.23;2.80;;;14.90;99.90;14.30;101438;;;;585304;241;24042;-76
2023/09/05 00:14:18;;;;;;;2.47;2.27;;;14.90;99.90;14.30;101438;;;;587325;241;24036;-76
2023/09/05 00:16:44;;;;;;;5.20;2.60;;;15.00;99.90;14.40;101438;;;;576961;244;24059;-78
2023/09/05 00:19:13;;;;;;;3.27;2.23;;;15.00;99.90;14.40;101441;;;;576562;246;24296;-75
2023/09/05 00:21:40;;;;;;;2.47;2.30;;;15.00;99.90;14.40;101431;;;;576560;246;24063;-75
2023/09/05 00:24:39;;;;;;;2.00;1.90;;;15.10;99.90;14.30;101429;;;;585504;241;24055;-76
2023/09/05 00:27:07;;;;;;;5.37;2.37;;;15.00;99.90;14.30;101434;;;;584006;241;24101;-76
2023/09/05 00:29:33;;;;;;;4.17;1.80;;;15.00;99.90;14.20;101434;;;;574542;246;24073;-76
2023/09/05 00:32:01;;;;;;;3.53;2.50;;;14.90;99.90;14.20;101428;;;;585361;241;24043;-76
2023/09/05 00:34:35;;;;;;;2.50;2.30;;;14.90;99.90;14.20;101431;;;;581001;244;24078;-75
2023/09/05 00:37:06;;;;;;;2.00;1.90;;;14.90;99.90;14.20;101428;;;;589581;243;24064;-76
2023/09/05 00:39:33;;;;;;;3.30;3.00;;;14.80;99.90;14.20;101427;;;;580390;244;24172;-75
2023/09/05 00:42:06;;;;;;;3.43;2.27;;;14.80;99.90;14.20;101430;;;;580264;244;24076;-76
2023/09/05 00:44:28;;;;;;;3.93;2.47;;;14.80;99.90;14.20;101435;;;;580805;244;24094;-75
2023/09/05 00:46:56;;;;;;;3.87;2.13;;;14.80;99.90;14.10;101434;;;;580874;244;24075;-76
2023/09/05 00:49:27;;;;;;;5.90;2.50;;;14.80;99.90;14.10;101431;;;;580678;244;24076;-76
2023/09/05 00:51:52;;;;;;;2.93;2.20;;;14.80;99.90;14.10;101438;;;;580658;244;24071;-76
2023/09/05 00:54:20;;;;;;;1.83;1.63;;;14.70;99.90;14.10;101433;;;;580494;244;24121;-78
2023/09/05 00:56:51;;;;;;;2.07;1.60;;;14.70;99.90;14.00;101435;;;;580159;244;24057;-75
2023/09/05 00:59:16;;;;;;;5.33;2.30;;;14.70;99.90;14.00;101423;;;;581619;243;24203;-76
2023/09/05 01:01:44;;;;;;;2.63;2.30;;;14.70;99.90;13.90;101431;;;;581746;243;24060;-76
2023/09/05 01:04:15;;;;;;;4.03;2.27;;;14.60;99.90;13.90;101420;;;;581328;243;24091;-76
2023/09/05 01:07:13;;;;;;;2.07;1.97;;;14.50;99.90;13.80;101422;;;;580883;243;24074;-76
2023/09/05 01:09:43;;;;;;;3.27;1.97;;;14.50;99.90;13.80;101422;;;;580727;243;24073;-76
2023/09/05 01:12:11;;;;;;;2.87;1.70;;;14.50;99.90;13.80;101420;;;;589420;243;24266;-81
2023/09/05 01:14:43;;;;;;;1.90;1.80;;;14.40;99.90;13.80;101422;;;;581599;243;24054;-77
2023/09/05 01:17:07;;;;;;;2.33;1.57;;;14.40;99.90;13.80;101419;;;;580767;243;24170;-79
2023/09/05 01:19:36;;;;;;;1.90;1.80;;;14.40;99.90;13.80;101427;;;;580510;243;24072;-76
2023/09/05 01:22:13;;;;;;;1.93;1.83;;;14.40;99.90;13.70;101418;;;;589291;243;25175;-76
2023/09/05 01:24:45;;;;;;;3.53;1.87;;;14.40;99.90;13.70;101417;;;;579052;243;24088;-75
2023/09/05 01:27:10;;;;;;;1.83;1.70;;;14.40;99.90;13.60;101412;;;;580170;243;24142;-77
2023/09/05 01:29:40;;;;;;;3.33;1.70;;;14.30;99.90;13.60;101416;;;;588750;243;24088;-76
2023/09/05 01:32:14;;;;;;;1.83;1.73;;;14.30;99.90;13.60;101420;;;;580080;243;24062;-77
2023/09/05 01:34:42;;;;;;;1.87;1.77;;;14.30;99.90;13.50;101415;;;;577734;244;24079;-76
2023/09/05 01:37:10;;;;;;;1.77;1.63;;;14.20;99.90;13.50;101425;;;;579621;244;24119;-78
2023/09/05 01:39:35;;;;;;;2.07;1.83;;;14.20;99.90;13.50;101418;;;;579945;244;24071;-78
2023/09/05 01:42:05;;;;;;;2.00;1.90;;;14.20;99.90;13.40;101409;;;;579914;244;24061;-77
2023/09/05 01:44:32;;;;;;;1.33;1.30;;;14.10;99.90;13.40;101418;;;;580183;244;24070;-79
2023/09/05 01:46:58;;;;;;;1.67;1.57;;;14.10;99.90;13.40;101416;;;;580133;244;24056;-77
2023/09/05 01:49:26;;;;;;;1.73;1.40;;;14.10;99.90;13.30;101415;;;;580255;244;24082;-76
2023/09/05 01:51:54;;;;;;;1.50;1.40;;;14.10;99.90;13.40;101416;;;;580023;244;24059;-77
2023/09/05 01:54:24;;;;;;;1.63;1.53;;;14.10;99.90;13.40;101410;;;;579864;244;24061;-77
2023/09/05 01:56:50;;;;;;;1.70;1.40;;;14.10;99.90;13.40;101405;;;;579713;244;24065;-76
2023/09/05 01:59:19;;;;;;;1.43;1.37;;;14.10;99.90;13.50;101406;;;;579951;244;24074;-80
2023/09/05 02:01:50;;;;;;;1.83;1.73;;;14.20;99.90;13.50;101401;;;;579818;244;24071;-76
2023/09/05 02:04:14;;;;;;;1.27;1.27;;;14.10;99.90;13.40;101405;;;;579638;244;24071;-75
2023/09/05 02:06:42;;;;;;;1.23;1.23;;;14.10;99.90;13.40;101410;;;;579881;244;24077;-77
2023/09/05 02:09:10;;;;;;;1.87;1.77;;;14.10;99.90;13.30;101409;;;;580548;243;24066;-77
2023/09/05 02:11:38;;;;;;;2.67;1.67;;;14.00;99.90;13.30;101406;;;;581146;243;24098;-77
2023/09/05 02:14:06;;;;;;;1.57;1.47;;;14.00;99.90;13.30;101405;;;;580724;243;24234;-76
2023/09/05 02:16:38;;;;;;;2.40;1.70;;;13.90;99.90;13.20;101406;;;;581082;243;24116;-76
2023/09/05 02:19:04;;;;;;;1.97;1.40;;;13.90;99.90;13.20;101399;;;;580944;243;24081;-76
2023/09/05 02:21:32;;;;;;;2.37;1.43;;;13.90;99.90;13.20;101399;;;;580574;243;24102;-76
2023/09/05 02:24:00;;;;;;;1.60;1.50;;;13.80;99.90;13.10;101402;;;;589529;243;24073;-78
2023/09/05 02:26:28;;;;;;;2.97;1.77;;;13.90;99.90;13.10;101403;;;;580896;243;24077;-76
2023/09/05 02:28:58;;;;;;;3.37;1.70;;;13.80;99.90;13.10;101402;;;;580180;243;24068;-76
2023/09/05 02:31:24;;;;;;;1.60;1.50;;;13.80;99.90;13.00;101398;;;;580131;243;24078;-76
2023/09/05 02:33:51;;;;;;;1.90;1.80;;;13.70;99.90;13.00;101405;;;;580345;243;24071;-76
2023/09/05 02:36:20;;;;;;;3.43;1.47;;;13.70;99.90;12.90;101391;;;;580257;243;24056;-76
2023/09/05 02:38:47;;;;;;;2.00;1.40;;;13.70;99.90;12.90;101393;;;;580262;243;24064;-76
2023/09/05 02:41:18;;;;;;;1.43;1.33;;;13.60;99.90;12.90;101383;;;;580247;243;24075;-78
2023/09/05 02:43:47;;;;;;;1.10;1.10;;;13.60;99.90;12.90;101383;;;;576185;243;24056;-76
2023/09/05 02:46:12;;;;;;;4.53;1.67;;;13.50;99.90;12.80;101380;;;;574085;246;24075;-82
2023/09/05 02:48:40;;;;;;;1.57;1.33;;;13.50;99.90;12.80;101378;;;;576270;246;24115;-80
2023/09/05 02:51:13;;;;;;;1.37;1.27;;;13.50;99.90;12.80;101371;;;;584835;241;25133;-76
2023/09/05 02:53:38;;;;;;;1.40;1.33;;;13.50;99.90;12.80;101371;;;;583968;241;24040;-80
2023/09/05 02:56:09;;;;;;;1.70;1.60;;;13.50;99.90;12.80;101367;;;;584677;241;24030;-77
2023/09/05 02:58:34;;;;;;;1.27;1.13;;;13.50;99.90;12.80;101377;;;;586570;241;24024;-77
2023/09/05 03:01:05;;;;;;;1.53;1.43;;;13.50;99.90;12.80;101372;;;;575565;246;24053;-79
2023/09/05 03:03:30;;;;;;;1.50;1.40;;;13.50;99.90;12.80;101369;;;;575844;246;24057;-76
2023/09/05 03:05:58;;;;;;;3.43;1.63;;;13.40;99.90;12.70;101364;;;;576102;246;24067;-77
2023/09/05 03:08:26;;;;;;;1.27;1.27;;;13.50;99.90;12.70;101365;;;;593449;241;24039;-76
2023/09/05 03:10:54;;;;;;;1.53;1.13;;;13.40;99.90;12.70;101360;;;;584316;241;24035;-78
2023/09/05 03:13:21;;;;;;;1.90;1.67;;;13.40;99.90;12.70;101363;;;;586674;241;24025;-78
2023/09/05 03:15:52;;;;;;;1.10;1.10;;;13.40;99.90;12.70;101373;;;;575802;246;24096;-77
2023/09/05 03:18:17;;;;;;;2.17;2.00;;;13.40;99.90;12.70;101376;;;;584535;241;24030;-78
2023/09/05 03:20:49;;;;;;;2.27;1.43;;;13.40;99.90;12.60;101375;;;;585449;241;24052;-77
2023/09/05 03:23:17;;;;;;;2.10;1.63;;;13.40;99.90;12.60;101376;;;;584738;241;24037;-78
2023/09/05 03:25:42;;;;;;;5.30;1.77;;;13.30;99.90;12.60;101378;;;;585160;241;24069;-76
2023/09/05 03:28:15;;;;;;;1.43;1.33;;;13.30;99.90;12.50;101379;;;;585414;241;24022;-80
2023/09/05 03:30:47;;;;;;;1.77;1.50;;;13.30;99.90;12.50;101372;;;;587462;241;24034;-76
2023/09/05 03:33:15;;;;;;;1.83;1.70;;;13.20;99.90;12.50;101361;;;;584743;241;24015;-77
2023/09/05 03:35:43;;;;;;;2.67;2.00;;;13.20;99.90;12.50;101362;;;;584723;241;24139;-78
2023/09/05 03:38:09;;;;;;;2.90;1.80;;;13.20;99.90;12.40;101362;;;;587241;241;24046;-77
2023/09/05 03:40:40;;;;;;;1.70;1.60;;;13.10;99.90;12.40;101363;;;;575892;246;24110;-79
2023/09/05 03:43:05;;;;;;;3.30;2.13;;;13.10;99.90;12.40;101356;;;;584306;241;24034;-77
2023/09/05 03:45:33;;;;;;;3.27;2.27;;;13.10;99.90;12.30;101358;;;;584587;241;24035;-76
2023/09/05 03:48:01;;;;;;;6.53;2.10;;;13.10;99.90;12.30;101350;;;;585119;241;24088;-77
2023/09/05 03:50:30;;;;;;;2.93;2.13;;;13.00;99.90;12.30;101355;;;;585039;241;24018;-75
2023/09/05 03:52:57;;;;;;;3.23;2.10;;;13.00;99.90;12.30;101350;;;;584997;241;24030;-77
2023/09/05 03:55:25;;;;;;;2.67;2.47;;;13.00;99.90;12.30;101364;;;;584242;241;24035;-76
2023/09/05 03:57:53;;;;;;;3.13;2.53;;;13.00;99.90;12.30;101360;;;;584301;241;24030;-76
2023/09/05 04:00:22;;;;;;;3.33;2.80;;;13.00;99.90;12.30;101365;;;;573891;246;24092;-79
2023/09/05 04:02:50;;;;;;;5.83;2.97;;;12.90;99.90;12.30;101365;;;;584645;241;24079;-76
2023/09/05 04:05:21;;;;;;;2.70;2.50;;;12.90;99.90;12.20;101365;;;;584601;241;24071;-76
2023/09/05 04:07:51;;;;;;;2.83;2.63;;;12.90;99.90;12.30;101356;;;;576942;243;24041;-76
2023/09/05 04:10:19;;;;;;;5.87;2.93;;;12.90;99.90;12.20;101357;;;;584882;241;24045;-76
2023/09/05 04:12:47;;;;;;;3.27;2.87;;;12.90;99.90;12.30;101362;;;;584823;241;24041;-76
2023/09/05 04:15:19;;;;;;;3.90;2.93;;;13.00;99.90;12.30;101364;;;;584430;241;24055;-76
2023/09/05 04:17:41;;;;;;;4.37;3.23;;;13.00;99.90;12.30;101358;;;;584402;241;24026;-77
2023/09/05 04:20:12;;;;;;;3.07;2.80;;;13.00;99.90;12.40;101349;;;;584635;241;24026;-76
2023/09/05 04:22:38;;;;;;;3.17;2.97;;;13.00;99.90;12.40;101356;;;;576136;246;24154;-76
2023/09/05 04:25:09;;;;;;;6.83;2.97;;;13.10;99.90;12.50;101358;;;;584255;241;24022;-76
2023/09/05 04:27:40;;;;;;;4.33;3.33;;;13.10;99.90;12.50;101364;;;;576384;246;24113;-77
2023/09/05 04:30:09;;;;;;;3.30;3.00;;;13.20;99.90;12.60;101363;;;;576397;246;24056;-76
2023/09/05 04:32:34;;;;;;;3.30;3.03;;;13.20;99.90;12.70;101371;;;;584500;241;24044;-77
2023/09/05 04:35:01;;;;;;;4.10;2.77;;;13.30;99.90;12.70;101365;;;;575307;246;24065;-78
2023/09/05 04:37:32;;;;;;;2.73;2.53;;;13.40;99.90;12.90;101372;;;;585522;241;24046;-77
2023/09/05 04:40:00;;;;;;;3.50;2.60;;;13.50;99.90;12.90;101371;;;;585305;241;24033;-77
2023/09/05 04:42:28;;;;;;;2.70;2.50;;;13.60;99.90;13.10;101374;;;;585120;241;24033;-77
2023/09/05 04:44:54;;;;;;;6.93;2.93;;;13.80;99.90;13.20;101382;;;;584936;241;24082;-76
2023/09/05 04:47:24;;;;;;;6.60;3.03;;;13.80;99.90;13.30;101371;;;;585650;241;24031;-77
2023/09/05 04:49:52;;;;;;;3.80;2.93;;;13.90;99.90;13.40;101380;;;;585348;241;24064;-77
2023/09/05 04:52:24;;;;;;;3.33;2.93;;;14.10;99.90;13.50;101378;;;;585202;241;24030;-77
2023/09/05 04:54:49;;;;;;;3.77;2.50;;;14.20;99.90;13.60;101370;;;;584635;241;24075;-78
2023/09/05 04:57:17;;;;;;;3.07;2.53;;;14.30;99.90;13.70;101385;;;;585219;241;24051;-77
2023/09/05 04:59:47;;;;;;;2.70;2.50;;;14.40;99.90;13.90;101381;;;;585071;241;24029;-76
2023/09/05 05:02:13;;;;;;;3.20;2.47;;;14.50;99.90;14.10;101375;;;;583945;241;24073;-77
2023/09/05 05:04:41;;;;;;;4.83;2.80;;;14.60;99.90;15.20;101386;;;;584705;241;24078;-76
2023/09/05 05:07:11;;;;;;;2.63;2.37;;;15.60;99.90;17.20;101385;;;;585274;241;24037;-76
2023/09/05 05:09:43;;;;;;;3.03;2.40;;;17.40;99.90;19.20;101381;;;;584592;241;24035;-77
2023/09/05 05:12:09;;;;;;;2.30;2.20;;;19.50;99.90;21.10;101385;;;;576147;246;23073;-77
2023/09/05 05:14:40;;;;;;;2.00;1.90;;;21.50;99.90;23.00;101384;;;;577089;244;24053;-76
2023/09/05 05:17:07;;;;;;;5.43;2.23;;;23.30;99.90;24.50;101388;;;;595738;241;23118;-77
2023/09/05 05:19:36;;;;;;;1.93;1.80;;;24.80;99.90;25.60;101393;;;;596660;237;23105;-76
2023/09/05 05:22:01;;;;;;;2.10;1.97;;;26.10;99.90;26.90;101396;;;;577420;246;23075;-77
2023/09/05 05:24:28;;;;;;;2.10;1.57;;;27.30;99.90;27.70;101396;;;;576912;246;24050;-76
2023/09/05 05:26:56;;;;;;;7.37;2.00;;;28.20;98.80;28.40;101395;;;;585460;241;24101;-77
2023/09/05 05:29:25;;;;;;;2.20;1.73;;;29.00;96.00;29.30;101401;;;;585580;236;23080;-78
2023/09/05 05:31:52;;;;;;;2.35;1.95;;;29.90;92.90;30.00;101397;;;;585651;240;23086;-79
2023/09/05 05:34:21;;;;;;;6.62;1.90;;;30.60;91.70;31.10;101394;;;;586618;241;23114;-78
2023/09/05 05:36:49;;;;;;;4.25;1.70;;;31.50;85.00;32.00;101406;;;;597435;237;22982;-76
2023/09/05 05:39:21;;;;;;;4.87;1.62;;;32.30;77.70;32.30;101399;;;;576924;246;23073;-78
2023/09/05 05:41:45;;;;;;;5.00;1.77;;;32.90;74.40;32.70;101403;;;;577325;245;23100;-75
2023/09/05 05:44:14;;;;;;;5.25;1.65;;;33.30;72.80;33.30;101409;;;;576937;245;23056;-79
2023/09/05 05:46:45;;;;;;;4.68;1.45;;;33.90;68.90;33.90;101409;;;;577596;246;23068;-78
2023/09/05 05:49:14;;;;;;;2.60;1.48;;;34.30;66.40;34.40;101412;;;;585233;241;23067;-79
2023/09/05 05:51:38;;;;;;;2.00;1.33;;;34.90;63.70;35.10;101423;;;;585591;239;23077;-82
2023/09/05 05:54:09;;;;;;;2.17;1.50;;;35.50;61.70;35.70;101420;;;;585178;241;23051;-81
2023/09/05 05:56:36;;;;;;;2.78;1.55;;;36.20;60.70;36.00;101425;;;;584781;241;23063;-83
2023/09/05 05:59:02;;;;;;;2.10;1.58;;;36.50;58.40;36.00;101426;;;;584560;241;23059;-81
2023/09/05 06:01:30;;;;;;;2.40;1.77;;;36.60;57.80;36.40;101427;;;;584655;241;23097;-80
2023/09/05 06:03:58;;;;;;;4.18;1.90;;;37.10;57.00;36.40;101429;;;;584301;241;24085;-80
2023/09/05 06:06:27;;;;;;;4.80;1.35;;;37.30;56.00;36.90;101431;;;;584510;241;23058;-85
2023/09/05 06:08:56;;;;;;;5.75;1.60;;;37.80;55.10;37.60;101428;;;;584481;241;23089;-79
2023/09/05 06:11:25;;;;;;;5.53;1.90;;;37.80;55.00;38.30;101423;;;;584680;241;23056;-78
2023/09/05 06:13:53;;;;;;;3.58;2.15;;;38.50;54.20;39.00;101436;;;;573936;246;23058;-83
2023/09/05 06:16:23;;;;;;;5.32;1.70;;;39.30;53.00;39.80;101431;;;;576044;246;23082;-85
2023/09/05 06:18:49;;;;;;;4.22;1.83;;;39.90;51.50;40.10;101426;;;;576348;246;23074;-85
2023/09/05 06:21:16;;;;;;;1.40;1.30;;;40.40;50.70;40.70;101436;;;;576193;246;23067;-84
2023/09/05 06:23:44;;;;;;;6.32;2.90;;;40.90;49.90;41.00;101431;;;;576138;246;23164;-87
2023/09/05 06:26:12;;;;;;;7.15;1.70;;;41.20;49.30;41.30;101430;;;;576255;246;23057;-84
2023/09/05 06:28:41;;;;;;;3.60;1.52;;;41.80;48.70;41.60;101432;;;;584664;241;23045;-85
2023/09/05 06:31:09;;;;;;;8.50;2.10;;;41.80;48.70;42.10;101428;;;;584465;241;23033;-85
2023/09/05 06:33:37;;;;;;;2.10;1.73;;;42.20;48.10;42.50;101434;;;;574170;246;23080;-81
2023/09/05 06:36:05;;;;;;;1.45;1.40;;;42.70;47.40;42.70;101433;;;;576249;246;23070;-82
2023/09/05 06:38:34;;;;;;;1.70;1.60;;;42.90;46.80;43.00;101437;;;;584665;241;23071;-80
2023/09/05 06:41:13;;;;;;;5.07;1.83;;;43.50;45.70;43.30;101437;;;;585049;241;23052;-83
2023/09/05 06:43:37;;;;;;;1.75;1.65;;;43.50;46.30;43.60;101438;;;;584487;241;23119;-81
2023/09/05 06:46:05;;;;;;;7.40;2.03;;;43.80;45.20;44.00;101439;;;;584867;241;23047;-81
2023/09/05 06:48:40;;;;;;;5.30;2.33;;;44.10;44.60;44.10;101439;;;;584940;241;23058;-82
2023/09/05 06:51:06;;;;;;;6.65;1.77;;;44.60;44.00;44.40;101437;;;;576716;244;23090;-81
2023/09/05 06:53:34;;;;;;;3.22;1.50;;;44.60;43.90;44.30;101438;;;;576196;246;23087;-82
2023/09/05 06:56:06;;;;;;;3.08;2.20;;;44.50;43.90;44.60;101437;;;;585497;241;23042;-82
2023/09/05 06:58:34;;;;;;;4.40;1.87;;;44.60;44.00;45.10;101438;;;;594837;241;23060;-83
2023/09/05 07:01:01;;;;;;;2.28;1.75;;;45.00;43.20;45.00;101443;;;;589105;236;23027;-82
2023/09/05 07:03:31;;;;;;;2.37;2.17;;;45.20;42.70;44.30;101442;;;;587988;234;23194;-80
2023/09/05 07:05:58;;;;;;;1.83;1.73;;;44.50;43.40;44.30;101447;;;;609310;232;23024;-79
2023/09/05 07:08:26;;;;;;;3.65;1.77;;;44.50;43.50;44.80;101441;;;;594556;236;24111;-81
2023/09/05 07:10:57;;;;;;;3.85;1.83;;;44.80;43.10;45.20;101442;;;;592855;239;23068;-81
2023/09/05 07:13:25;;;;;;;8.05;2.22;;;45.20;42.70;45.80;101438;;;;586237;240;23144;-79
2023/09/05 07:15:51;;;;;;;6.30;2.10;;;45.70;42.10;46.20;101440;;;;592701;236;24119;-81
2023/09/05 07:18:17;;;;;;;5.40;2.03;;;46.10;42.00;46.30;101442;;;;582203;238;23138;-82
2023/09/05 07:20:45;;;;;;;2.92;1.98;;;46.40;41.80;46.40;101446;;;;583737;237;23133;-80
2023/09/05 07:23:13;;;;;;;3.70;1.90;;;46.50;41.20;46.10;101448;;;;594003;238;23044;-77
2023/09/05 07:25:41;;;;;;;15.95;3.60;;;46.40;41.30;45.80;101442;;;;605341;233;23012;-80
2023/09/05 07:28:10;;;;;;;11.27;2.97;;;46.10;41.40;45.10;101445;;;;605962;233;23010;-82
2023/09/05 07:30:41;;;;;;;5.05;2.75;;;45.60;41.50;43.60;101452;;;;593553;238;24123;-83
2023/09/05 07:33:05;;;;;;;5.53;2.00;;;44.60;42.10;42.70;101439;;;;593067;238;23040;-79
2023/09/05 07:35:34;;;;;;;4.00;2.33;;;43.40;44.10;43.10;101436;;;;604640;233;23052;-88
2023/09/05 07:38:02;;;;;;;6.50;2.03;;;43.90;43.50;44.00;101439;;;;593672;238;23051;-82
2023/09/05 07:40:30;;;;;;;8.00;1.95;;;43.90;43.50;44.80;101432;;;;604493;233;23016;-83
2023/09/05 07:43:00;;;;;;;4.35;2.15;;;44.70;43.20;45.90;101427;;;;602621;237;23044;-81
2023/09/05 07:45:26;;;;;;;7.90;2.83;;;45.80;42.30;46.70;101423;;;;603508;234;23082;-84
2023/09/05 07:47:57;;;;;;;3.42;2.45;;;46.50;41.90;46.80;101435;;;;605464;233;23042;-82
2023/09/05 07:50:25;;;;;;;10.88;2.78;;;46.90;40.80;45.60;101434;;;;582132;241;23062;-84
2023/09/05 07:52:54;;;;;;;13.82;2.20;;;46.50;40.70;44.40;101433;;;;595477;237;23060;-81
2023/09/05 07:55:19;;;;;;;11.18;2.72;;;45.50;42.70;45.20;101437;;;;584178;241;23076;-82
2023/09/05 07:57:47;;;;;;;6.68;2.25;;;46.40;42.50;46.50;101444;;;;593709;241;23053;-82
2023/09/05 08:00:18;;;;;;;21.60;3.62;;;46.40;42.40;47.00;101448;;;;595717;237;23079;-79
2023/09/05 08:02:47;;;;;;;5.75;2.80;;;47.10;41.20;46.60;101458;;;;584015;241;23073;-83
2023/09/05 08:05:11;;;;;;;10.82;2.45;;;47.10;40.40;45.00;101449;;;;583306;242;23088;-80
2023/09/05 08:07:39;;;;;;;14.80;2.55;;;46.20;40.30;44.60;101450;;;;596588;236;23037;-79
2023/09/05 08:10:07;;;;;;;5.37;2.00;;;45.40;41.50;45.40;101444;;;;597063;237;23041;-82
2023/09/05 08:12:35;;;;;;;3.15;1.67;;;45.60;41.40;44.80;101461;;;;596658;237;23052;-81
2023/09/05 08:15:04;;;;;;;2.92;1.98;;;45.40;41.40;43.50;101456;;;;596929;237;23116;-81
2023/09/05 08:17:35;;;;;;;5.72;2.28;;;44.50;42.20;43.60;101466;;;;596435;237;23067;-80
2023/09/05 08:19:59;;;;;;;10.70;2.50;;;44.30;43.10;45.00;101452;;;;595770;237;23068;-81
2023/09/05 08:22:27;;;;;;;3.25;2.22;;;45.10;42.90;45.80;101454;;;;596035;237;23038;-86
2023/09/05 08:24:55;;;;;;;3.25;2.20;;;45.60;41.00;44.70;101460;;;;596146;237;23036;-83
2023/09/05 08:27:28;;;;;;;11.82;2.40;;;45.60;40.80;43.60;101453;;;;595685;237;23105;-81
2023/09/05 08:29:51;;;;;;;5.80;1.98;;;44.70;41.60;43.70;101449;;;;595933;237;23066;-79
2023/09/05 08:32:19;;;;;;;4.12;1.80;;;44.40;42.30;43.80;101446;;;;595767;237;23103;-81
2023/09/05 08:34:47;;;;;;;9.90;2.42;;;44.40;42.50;44.70;101451;;;;595557;237;23056;-81
2023/09/05 08:37:15;;;;;;;4.72;1.95;;;44.90;42.70;45.80;101443;;;;595657;237;23077;-81
2023/09/05 08:39:43;;;;;;;4.57;2.10;;;45.90;41.80;47.20;101455;;;;595614;237;23067;-83
2023/09/05 08:42:11;;;;;;;4.28;2.37;;;47.20;39.90;46.90;101451;;;;595459;237;23052;-81
2023/09/05 08:44:41;;;;;;;3.58;2.10;;;47.70;39.10;46.70;101454;;;;595202;237;23078;-82
2023/09/05 08:47:07;;;;;;;2.28;2.00;;;47.60;39.60;47.20;101454;;;;594871;237;23126;-84
2023/09/05 08:49:38;;;;;;;8.32;2.50;;;48.20;38.60;47.30;101456;;;;595340;237;23091;-84
2023/09/05 08:52:04;;;;;;;11.25;2.33;;;48.50;39.60;47.70;101449;;;;595211;237;23042;-82
2023/09/05 08:54:32;;;;;;;3.75;2.08;;;48.50;38.90;48.10;101450;;;;595497;237;23078;-79
2023/09/05 08:57:03;;;;;;;5.55;2.28;;;49.00;38.20;48.60;101452;;;;595863;237;23038;-87
2023/09/05 08:59:29;;;;;;;3.87;2.42;;;49.50;38.30;49.20;101450;;;;595828;237;23048;-85
2023/09/05 09:01:57;;;;;;;9.50;2.50;;;50.00;36.90;49.10;101449;;;;596060;237;23048;-87
2023/09/05 09:04:26;;;;;;;4.12;2.42;;;50.50;36.40;49.50;101449;;;;595339;237;23121;-82
2023/09/05 09:07:06;;;;;;;13.35;3.78;;;50.40;36.30;49.50;101457;;;;596068;232;23049;-78
2023/09/05 09:09:40;;;;;;;3.17;2.15;;;50.50;36.40;49.10;101460;;;;587957;237;23182;-84
2023/09/05 09:12:09;;;;;;;4.53;2.15;;;50.40;36.30;49.00;101461;;;;595896;237;23080;-86
2023/09/05 09:14:33;;;;;;;3.08;2.05;;;50.50;36.40;48.70;101462;;;;595341;237;23114;-85
2023/09/05 09:17:05;;;;;;;3.75;2.65;;;50.20;36.30;49.00;101456;;;;602911;234;23057;-81
2023/09/05 09:19:29;;;;;;;2.80;2.30;;;50.40;36.50;48.90;101457;;;;597001;233;23066;-83
2023/09/05 09:22:03;;;;;;;3.37;2.10;;;50.40;36.70;49.10;101451;;;;589958;240;23043;-83
2023/09/05 09:24:41;;;;;;;4.07;2.28;;;50.90;36.30;49.50;101453;;;;591788;238;23131;-81
2023/09/05 09:27:05;;;;;;;4.25;2.70;;;50.80;36.20;49.50;101449;;;;593591;238;23141;-83
2023/09/05 09:29:37;;;;;;;7.80;2.28;;;51.00;35.80;49.70;101456;;;;590162;238;23076;-82
2023/09/05 09:32:10;;;;;;;4.07;2.05;;;51.20;35.70;50.00;101449;;;;579025;241;23116;-85
2023/09/05 09:34:36;;;;;;;6.62;2.40;;;51.50;35.20;50.00;101455;;;;604562;234;23031;-85
2023/09/05 09:37:03;;;;;;;2.15;1.85;;;51.70;36.10;50.00;101455;;;;604205;234;23014;-83
2023/09/05 09:39:33;;;;;;;3.85;2.12;;;51.80;35.40;50.00;101441;;;;604369;234;23062;-86
2023/09/05 09:42:01;;;;;;;5.50;2.20;;;51.60;35.10;50.00;101447;;;;603284;234;23038;-82
2023/09/05 09:44:36;;;;;;;5.70;2.22;;;51.80;35.20;49.90;101442;;;;603465;234;23078;-81
2023/09/05 09:47:03;;;;;;;6.68;2.33;;;51.90;35.50;49.90;101435;;;;602232;234;23041;-83
2023/09/05 09:49:31;;;;;;;5.70;2.20;;;51.90;35.40;50.30;101434;;;;594608;237;23049;-84
2023/09/05 09:51:59;;;;;;;2.92;2.12;;;52.10;35.00;50.10;101432;;;;583592;242;23106;-82
2023/09/05 09:54:31;;;;;;;3.22;2.10;;;52.20;35.10;50.40;101428;;;;583444;242;23120;-82
2023/09/05 09:57:01;;;;;;;2.45;2.25;;;52.30;35.40;50.50;101435;;;;582734;242;23107;-82
2023/09/05 09:59:34;;;;;;;2.62;2.42;;;52.60;35.10;50.60;101429;;;;583284;242;23145;-81
2023/09/05 10:01:56;;;;;;;3.92;2.22;;;52.70;34.40;50.30;101438;;;;575842;242;35080;-81
2023/09/05 10:04:24;;;;;;;2.62;2.40;;;52.60;34.20;49.80;101440;;;;594177;237;23083;-83
2023/09/05 10:06:53;;;;;;;3.35;2.35;;;52.10;35.00;49.90;101434;;;;582590;242;23127;-82
2023/09/05 10:09:23;;;;;;;8.30;3.05;;;52.00;34.80;49.40;101435;;;;592690;242;23115;-81
2023/09/05 10:11:48;;;;;;;5.72;2.20;;;51.50;34.80;48.20;101435;;;;594008;237;23089;-83
2023/09/05 10:14:19;;;;;;;2.50;2.40;;;50.60;34.40;46.40;101435;;;;583680;242;23072;-81
2023/09/05 10:16:46;;;;;;;4.20;1.92;;;48.90;35.60;44.00;101427;;;;594154;237;26243;-82
2023/09/05 10:19:15;;;;;;;6.68;1.98;;;46.70;37.30;42.00;101430;;;;583277;242;23124;-82
2023/09/05 10:21:43;;;;;;;7.53;3.05;;;44.30;38.90;40.40;101428;;;;594319;237;23040;-82
2023/09/05 10:24:08;;;;;;;4.03;2.40;;;42.30;41.00;38.90;101430;;;;582953;242;24145;-80
2023/09/05 10:26:36;;;;;;;2.72;2.10;;;40.60;42.90;37.70;101411;;;;594985;237;24106;-79
2023/09/05 10:29:04;;;;;;;7.75;2.62;;;39.00;44.30;36.30;101415;;;;583488;242;23116;-81
2023/09/05 10:31:34;;;;;;;1.90;1.80;;;37.60;45.80;35.30;101414;;;;582195;241;23091;-78
2023/09/05 10:33:59;;;;;;;5.87;2.10;;;36.30;47.70;34.30;101408;;;;584701;241;24108;-80
2023/09/05 10:36:45;;;;;;;3.10;1.87;;;35.30;49.10;33.60;101410;;;;595168;237;24061;-81
2023/09/05 10:39:24;;;;;;;2.72;2.30;;;34.40;50.80;32.80;101398;;;;583086;242;23073;-82
2023/09/05 10:41:51;;;;;;;2.95;2.03;;;33.50;52.90;32.20;101397;;;;584205;242;23060;-81
2023/09/05 10:44:19;;;;;;;6.25;2.10;;;32.20;55.80;31.70;101401;;;;594715;237;23053;-81
2023/09/05 10:46:50;;;;;;;4.12;2.65;;;32.20;55.80;31.20;101400;;;;583788;242;24050;-81
2023/09/05 10:49:18;;;;;;;17.40;4.40;;;31.20;57.30;30.70;101395;;;;583709;242;24086;-81
2023/09/05 10:52:18;;;;;;;5.50;3.40;;;30.60;58.20;30.10;101384;;;;594615;237;23036;-81
2023/09/05 10:54:47;;;;;;;9.00;5.82;;;29.90;59.50;29.40;101387;;;;583339;242;23082;-81
2023/09/05 10:57:40;;;;;;;8.60;4.47;;;29.40;60.40;28.90;101379;;;;594979;237;23070;-81
2023/09/05 11:00:17;;;;;;;2.72;2.53;;;29.30;60.40;28.40;101382;;;;583369;242;24068;-79
2023/09/05 11:02:44;;;;;;;2.62;2.50;;;28.80;62.80;28.10;101381;;;;595224;237;24125;-80
2023/09/05 11:05:16;;;;;;;2.20;2.00;;;28.20;65.10;27.90;101369;;;;583719;242;23089;-77
2023/09/05 11:07:43;;;;;;;2.55;2.30;;;28.20;65.00;27.80;101375;;;;587778;240;23069;-77
2023/09/05 11:10:14;;;;;;;5.40;2.42;;;28.00;66.20;27.60;101370;;;;602308;235;23047;-79
2023/09/05 11:12:44;;;;;;;2.58;2.37;;;27.70;68.30;27.40;101366;;;;601186;235;23049;-80
2023/09/05 11:15:11;;;;;;;5.53;2.20;;;27.50;68.30;27.20;101365;;;;601654;235;24088;-79
2023/09/05 11:17:39;;;;;;;2.73;2.50;;;27.40;68.20;27.10;101352;;;;601897;235;24028;-80